Time;durP1;ratioP1;P1;durP2;ratioP2;P2;SDS_P1;SDS_P2;PMS_P1;PMS_P2;Temp;Humidity;BMP_temperature;BMP_pressure;BME280_temperature;BME280_humidity;BME280_pressure;Samples;Min_cycle;Max_cycle;Signal;HPM_P1;HPM_P2
2021/12/21 00:00:12;;;;;;;20.50;11.70;;;-3.60;99.90;;;;;;5051282;28;20267;-77
2021/12/21 00:02:44;;;;;;;23.73;10.93;;;-3.60;99.90;;;;;;5054604;28;20256;-77
2021/12/21 00:05:17;;;;;;;22.90;11.87;;;-3.60;99.90;;;;;;5051475;28;20544;-77
2021/12/21 00:07:43;;;;;;;17.53;10.80;;;-3.60;99.90;;;;;;5051894;28;20675;-76
2021/12/21 00:10:10;;;;;;;20.03;10.60;;;-3.60;99.90;;;;;;5051235;28;20209;-77
2021/12/21 00:12:37;;;;;;;20.17;11.83;;;-3.60;99.90;;;;;;5051981;28;20199;-77
2021/12/21 00:15:08;;;;;;;20.60;11.40;;;-3.70;99.90;;;;;;5051693;28;20180;-77
2021/12/21 00:18:22;;;;;;;26.07;11.50;;;-3.70;99.90;;;;;;5051700;28;20183;-76
2021/12/21 00:20:30;;;;;;;21.33;11.10;;;-3.70;99.90;;;;;;5045338;28;20294;-77
2021/12/21 00:25:48;;;;;;;18.63;11.40;;;-3.80;99.90;;;;;;5028070;28;20202;-77
2021/12/21 00:28:13;;;;;;;20.33;10.07;;;-3.80;99.90;;;;;;5051485;28;20262;-77
2021/12/21 00:30:39;;;;;;;16.27;9.07;;;-3.70;99.90;;;;;;5051337;28;20226;-77
2021/12/21 00:33:04;;;;;;;17.77;9.30;;;-3.70;99.90;;;;;;5051485;28;20217;-77
2021/12/21 00:35:30;;;;;;;25.50;10.80;;;-3.70;99.90;;;;;;5051238;28;20260;-76
2021/12/21 00:37:56;;;;;;;21.80;10.90;;;-3.80;99.90;;;;;;5051590;28;20179;-77
2021/12/21 00:40:22;;;;;;;22.73;10.80;;;-3.90;99.90;;;;;;5051171;28;20234;-76
2021/12/21 00:42:48;;;;;;;16.50;9.93;;;-3.90;99.90;;;;;;5051229;28;20234;-76
2021/12/21 00:45:13;;;;;;;19.43;9.20;;;-4.00;99.90;;;;;;5051312;28;20669;-76
2021/12/21 00:47:46;;;;;;;15.60;8.27;;;-4.00;99.90;;;;;;5051176;28;20707;-76
2021/12/21 00:50:16;;;;;;;15.70;9.47;;;-3.90;99.90;;;;;;5050920;28;20194;-77
2021/12/21 00:52:52;;;;;;;16.50;9.30;;;-3.90;99.90;;;;;;5051462;28;20728;-76
2021/12/21 00:55:19;;;;;;;17.47;8.90;;;-3.80;99.90;;;;;;5060334;28;20183;-76
2021/12/21 00:57:45;;;;;;;20.30;10.73;;;-3.90;99.90;;;;;;5051053;28;20178;-76
2021/12/21 01:00:13;;;;;;;21.33;11.23;;;-4.10;99.90;;;;;;5111960;22;20220;-78
2021/12/21 01:02:40;;;;;;;22.03;11.10;;;-4.20;99.90;;;;;;5112205;28;20204;-77
2021/12/21 01:05:14;;;;;;;20.33;11.03;;;-4.10;99.90;;;;;;5112445;28;20668;-77
2021/12/21 01:07:44;;;;;;;18.13;10.80;;;-4.10;99.90;;;;;;5094303;28;20173;-78
2021/12/21 01:13:11;;;;;;;21.87;11.33;;;-4.20;99.90;;;;;;5112841;28;20698;-78
2021/12/21 01:18:37;;;;;;;22.73;10.50;;;-4.20;99.90;;;;;;5084284;28;20549;-78
2021/12/21 01:21:25;;;;;;;18.83;10.13;;;-4.10;99.90;;;;;;5115369;28;20193;-78
2021/12/21 01:26:39;;;;;;;15.50;9.73;;;-4.10;99.90;;;;;;5115734;28;20170;-77
2021/12/21 01:29:17;;;;;;;18.73;10.27;;;-4.20;99.90;;;;;;5115744;28;20230;-77
2021/12/21 01:34:41;;;;;;;19.57;10.50;;;-4.40;99.90;;;;;;5115767;28;20173;-77
2021/12/21 01:37:19;;;;;;;22.33;10.87;;;-4.40;99.90;;;;;;5114510;28;20271;-77
2021/12/21 01:42:36;;;;;;;20.03;9.73;;;-4.30;99.90;;;;;;5115308;28;20169;-77
2021/12/21 01:49:38;;;;;;;18.13;10.47;;;-4.50;99.90;;;;;;5115751;28;20176;-76
2021/12/21 01:50:35;;;;;;;17.10;10.73;;;-4.40;99.90;;;;;;5114384;28;20269;-77
2021/12/21 01:53:00;;;;;;;15.37;9.07;;;-4.50;99.90;;;;;;5115423;28;20177;-76
2021/12/21 01:55:26;;;;;;;15.47;7.67;;;-4.50;99.90;;;;;;5115425;28;20177;-76
2021/12/21 01:57:52;;;;;;;16.37;8.53;;;-4.40;99.90;;;;;;5115641;28;20215;-76
2021/12/21 02:00:18;;;;;;;16.07;8.67;;;-4.50;99.90;;;;;;5114515;28;20614;-76
2021/12/21 02:02:44;;;;;;;17.73;8.47;;;-4.50;99.90;;;;;;5114678;28;20209;-76
2021/12/21 02:05:10;;;;;;;13.77;7.03;;;-4.40;99.90;;;;;;5114829;28;20230;-76
2021/12/21 02:07:35;;;;;;;13.20;6.23;;;-4.30;99.90;;;;;;5114968;28;20169;-76
2021/12/21 02:10:01;;;;;;;11.23;7.20;;;-4.40;99.90;;;;;;5114382;28;20275;-76
2021/12/21 02:12:27;;;;;;;13.10;5.90;;;-4.30;99.90;;;;;;5117610;28;20277;-76
2021/12/21 02:14:56;;;;;;;7.97;5.20;;;-4.30;99.90;;;;;;5116637;28;20169;-76
2021/12/21 02:23:11;;;;;;;10.93;5.73;;;-4.40;99.90;;;;;;5114620;28;20684;-76
2021/12/21 02:30:44;;;;;;;12.10;6.20;;;-4.40;99.90;;;;;;5113845;28;20518;-76
2021/12/21 02:33:11;;;;;;;14.03;7.47;;;-4.40;99.90;;;;;;5114305;28;20177;-76
2021/12/21 02:35:37;;;;;;;12.97;6.03;;;-4.40;99.90;;;;;;5114050;28;20668;-76
2021/12/21 02:38:03;;;;;;;12.90;6.17;;;-4.50;99.90;;;;;;5114502;28;20672;-77
2021/12/21 02:40:29;;;;;;;10.47;5.67;;;-4.40;99.90;;;;;;5113511;28;20193;-77
2021/12/21 02:42:55;;;;;;;16.20;7.30;;;-4.40;99.90;;;;;;5114031;28;20213;-77
2021/12/21 02:45:20;;;;;;;11.70;6.20;;;-4.30;99.90;;;;;;5114160;28;20195;-77
2021/12/21 02:47:46;;;;;;;11.07;6.17;;;-4.40;99.90;;;;;;5114062;28;20173;-77
2021/12/21 02:50:12;;;;;;;14.70;7.37;;;-4.40;99.90;;;;;;5113499;28;20244;-77
2021/12/21 02:52:37;;;;;;;14.00;7.23;;;-4.50;99.90;;;;;;5114088;28;20169;-77
2021/12/21 02:55:04;;;;;;;16.43;7.47;;;-4.50;99.90;;;;;;5113614;28;20180;-77
2021/12/21 02:57:30;;;;;;;11.90;6.50;;;-4.60;99.90;;;;;;5113768;28;20177;-77
2021/12/21 02:59:55;;;;;;;14.87;6.87;;;-4.50;99.90;;;;;;5112910;28;20220;-77
2021/12/21 03:02:21;;;;;;;12.37;6.07;;;-4.50;99.90;;;;;;5113710;28;20183;-76
2021/12/21 03:04:47;;;;;;;14.67;6.80;;;-4.50;99.90;;;;;;5113559;28;20204;-76
2021/12/21 03:10:00;;;;;;;13.90;5.87;;;-4.40;99.90;;;;;;5112891;28;20177;-76
2021/12/21 03:14:51;;;;;;;16.17;6.70;;;-4.50;99.90;;;;;;5113475;28;20196;-77
2021/12/21 03:17:18;;;;;;;15.70;8.17;;;-4.50;99.90;;;;;;5113445;28;20180;-77
2021/12/21 03:19:44;;;;;;;16.67;10.27;;;-4.60;99.90;;;;;;5112802;28;20201;-77
2021/12/21 03:22:11;;;;;;;17.10;9.27;;;-4.60;99.90;;;;;;5113198;28;20176;-76
2021/12/21 03:24:36;;;;;;;18.60;8.43;;;-4.60;99.90;;;;;;5113337;28;20216;-77
2021/12/21 03:27:04;;;;;;;14.90;6.40;;;-4.70;99.90;;;;;;5113351;28;20169;-77
2021/12/21 03:29:30;;;;;;;10.43;6.30;;;-4.70;99.90;;;;;;5112636;28;20229;-77
2021/12/21 03:31:56;;;;;;;13.73;6.47;;;-4.70;99.90;;;;;;5113046;28;20201;-77
2021/12/21 03:34:23;;;;;;;16.97;7.17;;;-4.70;99.90;;;;;;5113450;28;20173;-77
2021/12/21 03:36:48;;;;;;;12.63;6.90;;;-4.70;99.90;;;;;;5112880;28;20256;-77
2021/12/21 03:39:19;;;;;;;11.93;6.70;;;-4.80;99.90;;;;;;5111939;28;20260;-77
2021/12/21 03:41:57;;;;;;;12.30;6.87;;;-4.90;99.90;;;;;;5112806;28;20675;-76
2021/12/21 03:44:24;;;;;;;15.03;6.63;;;-5.00;99.90;;;;;;5112765;28;20212;-76
2021/12/21 03:46:53;;;;;;;10.70;5.90;;;-4.90;99.90;;;;;;5112930;28;20204;-76
2021/12/21 03:52:15;;;;;;;11.77;5.70;;;-4.80;99.90;;;;;;5112922;28;20637;-77
2021/12/21 03:54:46;;;;;;;14.50;5.50;;;-4.90;99.90;;;;;;5112417;28;20173;-77
2021/12/21 03:57:13;;;;;;;9.53;5.50;;;-4.90;99.90;;;;;;5112655;28;20168;-77
2021/12/21 03:59:40;;;;;;;11.87;7.00;;;-4.90;99.90;;;;;;5111944;28;20181;-77
2021/12/21 04:02:06;;;;;;;11.50;6.13;;;-5.10;99.90;;;;;;5113010;28;20722;-77
2021/12/21 04:04:32;;;;;;;11.53;5.73;;;-5.00;99.90;;;;;;5112677;28;20204;-77
2021/12/21 04:06:57;;;;;;;7.57;5.07;;;-4.90;99.90;;;;;;5112390;28;20169;-76
2021/12/21 04:09:23;;;;;;;14.13;5.97;;;-5.00;99.90;;;;;;5111733;28;20177;-77
2021/12/21 04:11:49;;;;;;;13.47;6.17;;;-4.90;99.90;;;;;;5112043;28;20306;-77
2021/12/21 04:14:17;;;;;;;10.03;6.43;;;-4.90;99.90;;;;;;5112424;28;20668;-77
2021/12/21 04:16:42;;;;;;;9.20;5.10;;;-4.90;99.90;;;;;;5112621;28;20177;-77
2021/12/21 04:19:08;;;;;;;11.77;6.10;;;-4.90;99.90;;;;;;5112233;28;20680;-78
2021/12/21 04:21:34;;;;;;;14.00;6.30;;;-4.90;99.90;;;;;;5112032;28;20193;-77
2021/12/21 04:24:00;;;;;;;10.33;6.33;;;-4.90;99.90;;;;;;5112001;28;20704;-77
2021/12/21 04:26:25;;;;;;;10.43;6.23;;;-4.90;99.90;;;;;;5112219;28;20183;-78
2021/12/21 04:28:51;;;;;;;11.50;5.97;;;-4.90;99.90;;;;;;5112756;28;20189;-77
2021/12/21 04:31:17;;;;;;;11.90;5.60;;;-4.90;99.90;;;;;;5112105;28;20199;-77
2021/12/21 04:33:43;;;;;;;11.27;5.97;;;-4.90;99.90;;;;;;5112345;28;20176;-77
2021/12/21 04:36:10;;;;;;;14.67;5.90;;;-4.90;99.90;;;;;;5112333;28;20655;-77
2021/12/21 04:38:39;;;;;;;11.57;5.60;;;-4.90;99.90;;;;;;5112212;28;20216;-77
2021/12/21 04:41:17;;;;;;;10.57;5.50;;;-5.00;99.90;;;;;;5111619;28;20280;-76
2021/12/21 04:43:43;;;;;;;7.90;5.80;;;-5.10;99.90;;;;;;5112405;28;20244;-77
2021/12/21 04:46:10;;;;;;;13.60;5.73;;;-5.10;99.90;;;;;;5112226;28;20177;-77
2021/12/21 04:48:36;;;;;;;14.33;6.07;;;-5.00;99.90;;;;;;5112067;28;20181;-77
2021/12/21 04:51:02;;;;;;;8.80;5.87;;;-5.00;99.90;;;;;;5113207;28;20193;-78
2021/12/21 04:53:27;;;;;;;13.90;6.47;;;-5.10;99.90;;;;;;5116270;28;20622;-77
2021/12/21 04:55:53;;;;;;;13.50;6.10;;;-5.20;99.90;;;;;;5116056;28;20173;-77
2021/12/21 04:58:20;;;;;;;14.23;6.53;;;-5.20;99.90;;;;;;5115918;28;20258;-77
2021/12/21 05:00:46;;;;;;;17.17;6.27;;;-5.30;99.90;;;;;;5115105;28;20213;-78
2021/12/21 05:03:12;;;;;;;9.90;6.70;;;-5.30;99.90;;;;;;5115682;28;20262;-78
2021/12/21 05:05:38;;;;;;;11.03;6.23;;;-5.30;99.90;;;;;;5115734;28;20177;-77
2021/12/21 05:08:12;;;;;;;12.23;6.60;;;-5.30;99.90;;;;;;5115806;28;20181;-77
2021/12/21 05:10:47;;;;;;;11.50;6.20;;;-5.30;99.90;;;;;;5114973;28;20207;-77
2021/12/21 05:13:14;;;;;;;18.50;6.13;;;-5.30;99.90;;;;;;5115730;28;20255;-77
2021/12/21 05:15:40;;;;;;;13.00;5.60;;;-5.30;99.90;;;;;;5115798;28;20161;-77
2021/12/21 05:18:06;;;;;;;10.67;5.60;;;-5.30;89.00;;;;;;5115887;28;20179;-77
2021/12/21 05:20:32;;;;;;;12.93;6.27;;;-5.30;68.20;;;;;;5115228;28;20195;-77
2021/12/21 05:22:57;;;;;;;10.50;5.80;;;-5.20;73.80;;;;;;5101614;28;20201;-77
2021/12/21 05:25:23;;;;;;;13.00;6.40;;;-5.30;49.00;;;;;;5115810;28;20227;-77
2021/12/21 05:27:49;;;;;;;14.73;6.27;;;-5.30;32.30;;;;;;5115740;28;20640;-77
2021/12/21 05:30:14;;;;;;;9.83;6.37;;;-5.40;34.90;;;;;;5114822;28;20197;-77
2021/12/21 05:32:40;;;;;;;15.87;7.10;;;-5.30;78.00;;;;;;5115371;28;20200;-77
2021/12/21 05:35:07;;;;;;;13.03;7.20;;;-4.80;99.90;;;;;;5115462;28;20173;-77
2021/12/21 05:37:33;;;;;;;15.97;6.90;;;-5.30;99.90;;;;;;5115480;28;20187;-77
2021/12/21 05:40:11;;;;;;;13.10;6.63;;;-5.20;99.90;;;;;;5114918;28;20193;-77
2021/12/21 05:42:36;;;;;;;18.10;6.47;;;-5.20;99.90;;;;;;5115440;28;20664;-77
2021/12/21 05:45:04;;;;;;;11.97;6.13;;;-5.30;99.90;;;;;;5115121;28;20181;-77
2021/12/21 05:47:30;;;;;;;15.10;6.03;;;-5.40;68.30;;;;;;5115590;28;20638;-77
2021/12/21 05:49:55;;;;;;;12.90;6.00;;;-5.40;60.50;;;;;;5114541;28;20250;-77
2021/12/21 05:52:21;;;;;;;14.43;6.50;;;-5.40;73.10;;;;;;5115202;28;20169;-77
2021/12/21 05:54:47;;;;;;;11.90;6.30;;;-5.40;56.50;;;;;;5115077;28;20668;-77
2021/12/21 05:57:12;;;;;;;11.63;6.43;;;-5.50;99.30;;;;;;5115064;28;20177;-77
2021/12/21 05:59:38;;;;;;;9.87;5.50;;;-5.50;99.90;;;;;;5114089;28;20238;-76
2021/12/21 06:02:04;;;;;;;11.17;6.17;;;-5.40;99.90;;;;;;5114532;28;20162;-77
2021/12/21 06:04:29;;;;;;;16.33;6.40;;;-5.40;88.20;;;;;;5114794;28;20221;-77
2021/12/21 06:06:55;;;;;;;12.23;5.87;;;-5.40;67.00;;;;;;5114868;28;20173;-77
2021/12/21 06:09:21;;;;;;;23.00;7.17;;;-5.40;54.80;;;;;;5114344;28;20205;-77
2021/12/21 06:12:12;;;;;;;16.37;6.10;;;-5.60;26.40;;;;;;5114586;28;20212;-77
2021/12/21 06:15:13;;;;;;;15.13;6.67;;;-5.60;30.80;;;;;;5113998;28;20268;-76
2021/12/21 06:23:45;;;;;;;13.10;6.60;;;-5.60;36.00;;;;;;5114592;28;20208;-77
2021/12/21 06:26:13;;;;;;;13.57;6.13;;;-5.50;40.60;;;;;;5114197;28;20176;-77
2021/12/21 06:28:39;;;;;;;11.83;5.93;;;-5.50;29.30;;;;;;5114314;28;20654;-77
2021/12/21 06:31:05;;;;;;;14.20;6.50;;;-5.60;13.80;;;;;;5113113;28;20351;-77
2021/12/21 06:33:31;;;;;;;14.38;6.38;;;-5.60;17.50;;;;;;5113927;28;20415;-77
2021/12/21 06:35:58;;;;;;;13.67;7.03;;;-5.60;24.10;;;;;;5113926;28;20184;-76
2021/12/21 06:38:24;;;;;;;14.93;6.57;;;-5.50;37.40;;;;;;5114118;28;20264;-77
2021/12/21 06:40:50;;;;;;;13.30;6.50;;;-5.50;40.40;;;;;;5113172;28;20624;-77
2021/12/21 06:43:16;;;;;;;17.47;7.60;;;-5.50;26.80;;;;;;5096913;28;20215;-77
2021/12/21 06:53:41;;;;;;;11.47;5.87;;;-5.20;75.70;;;;;;5093447;28;20170;-76
2021/12/21 06:56:08;;;;;;;11.00;6.17;;;-5.30;11.90;;;;;;5094007;28;20184;-76
2021/12/21 06:58:33;;;;;;;11.30;6.23;;;-5.30;1.50;;;;;;5093923;28;20188;-76
2021/12/21 07:01:00;;;;;;;13.90;7.67;;;-5.40;1.00;;;;;;5116500;22;20313;-76
2021/12/21 07:03:26;;;;;;;19.90;9.50;;;-5.30;1.00;;;;;;5074930;28;20260;-77
2021/12/21 07:05:52;;;;;;;14.93;8.10;;;-5.50;1.00;;;;;;5076897;28;20178;-78
2021/12/21 07:08:27;;;;;;;21.63;7.83;;;-5.50;1.00;;;;;;5077803;28;20647;-77
2021/12/21 07:11:11;;;;;;;12.43;6.57;;;-5.50;1.00;;;;;;5076025;28;20198;-77
2021/12/21 07:19:05;;;;;;;17.07;7.17;;;-5.40;20.70;;;;;;5073003;28;20213;-77
2021/12/21 07:21:30;;;;;;;20.83;8.70;;;-4.50;2.10;;;;;;5072895;28;20787;-76
2021/12/21 07:23:56;;;;;;;18.27;8.60;;;-5.40;1.00;;;;;;5073520;28;20206;-76
2021/12/21 07:26:22;;;;;;;19.60;8.60;;;-5.50;1.00;;;;;;5072734;28;20555;-76
2021/12/21 07:28:47;;;;;;;12.70;7.57;;;-5.40;1.00;;;;;;5073842;28;20205;-76
2021/12/21 07:31:13;;;;;;;13.93;7.90;;;-5.40;1.00;;;;;;5074748;28;20191;-76
2021/12/21 07:33:39;;;;;;;17.60;7.07;;;-5.30;1.00;;;;;;5074090;28;20615;-79
2021/12/21 07:36:05;;;;;;;19.23;7.53;;;-5.10;1.00;;;;;;5072868;28;20198;-77
2021/12/21 07:38:32;;;;;;;15.37;7.13;;;-4.60;1.00;;;;;;5073687;28;20182;-77
2021/12/21 07:40:58;;;;;;;18.60;8.20;;;-3.40;99.90;;;;;;5073961;28;20567;-77
2021/12/21 07:43:24;;;;;;;13.27;7.23;;;-3.10;1.00;;;;;;5073425;28;20214;-77
2021/12/21 07:45:50;;;;;;;20.47;8.10;;;-3.30;99.90;;;;;;5073192;28;20181;-77
2021/12/21 07:48:16;;;;;;;15.60;8.30;;;-3.50;43.30;;;;;;5073335;28;20175;-76
2021/12/21 07:50:42;;;;;;;19.23;7.80;;;-3.20;99.90;;;;;;5072907;28;20191;-77
2021/12/21 07:53:08;;;;;;;15.03;8.03;;;-2.30;1.00;;;;;;5073852;28;20174;-78
2021/12/21 07:55:33;;;;;;;14.30;7.80;;;-1.50;1.00;;;;;;5075055;28;20224;-78
2021/12/21 07:57:59;;;;;;;11.60;6.80;;;-0.50;99.90;;;;;;5074683;28;20182;-78
2021/12/21 08:00:24;;;;;;;14.00;6.90;;;0.00;91.40;;;;;;5075240;28;20209;-78
2021/12/21 08:02:50;;;;;;;15.33;8.10;;;0.80;59.10;;;;;;5075552;28;20738;-78
2021/12/21 08:05:17;;;;;;;12.93;7.77;;;1.10;1.00;;;;;;5075090;28;20716;-77
2021/12/21 08:07:51;;;;;;;17.53;9.40;;;1.10;1.00;;;;;;5074014;28;20175;-77
2021/12/21 08:10:22;;;;;;;15.33;8.53;;;1.80;1.00;;;;;;5056341;28;20247;-78
2021/12/21 08:12:48;;;;;;;17.30;8.20;;;2.30;1.00;;;;;;5075916;28;20178;-77
2021/12/21 08:15:14;;;;;;;11.83;7.73;;;2.30;1.00;;;;;;5075781;28;20174;-78
2021/12/21 08:17:39;;;;;;;16.83;10.40;;;2.70;1.00;;;;;;5076631;28;20167;-78
2021/12/21 08:20:05;;;;;;;14.30;8.33;;;2.60;1.00;;;;;;5075649;28;20258;-78
2021/12/21 08:22:31;;;;;;;17.83;8.37;;;3.30;1.00;;;;;;5080636;28;20344;-77
2021/12/21 08:24:56;;;;;;;14.13;9.10;;;3.50;1.00;;;;;;5083722;28;20182;-77
2021/12/21 08:27:22;;;;;;;11.60;7.70;;;3.90;1.00;;;;;;5079123;28;20175;-77
2021/12/21 08:29:48;;;;;;;13.80;7.80;;;3.70;1.00;;;;;;5075718;28;20600;-78
2021/12/21 08:32:14;;;;;;;14.37;7.83;;;4.40;1.00;;;;;;5075228;28;20243;-78
2021/12/21 08:34:39;;;;;;;14.30;8.43;;;4.30;1.00;;;;;;5075586;28;20647;-78
2021/12/21 08:37:05;;;;;;;10.47;7.40;;;4.60;1.00;;;;;;5074999;28;20174;-78
2021/12/21 08:39:38;;;;;;;14.43;7.80;;;4.50;1.00;;;;;;5075097;28;20190;-79
2021/12/21 08:42:05;;;;;;;11.97;7.40;;;4.00;1.00;;;;;;5075202;28;20662;-79
2021/12/21 08:59:10;;;;;;;12.17;8.63;;;5.20;1.00;;;;;;5165805;27;20784;-78
2021/12/21 09:01:43;;;;;;;11.17;7.60;;;4.00;1.00;;;;;;5140258;22;20232;-78
2021/12/21 09:04:09;;;;;;;13.00;6.80;;;5.00;1.00;;;;;;4997472;28;20219;-78
2021/12/21 09:06:35;;;;;;;11.60;7.73;;;5.50;1.00;;;;;;5026456;28;20262;-77
2021/12/21 09:09:00;;;;;;;13.63;6.67;;;5.10;1.00;;;;;;4983088;28;20248;-80
2021/12/21 09:11:27;;;;;;;14.23;7.33;;;5.00;1.00;;;;;;5035955;28;20206;-77
2021/12/21 09:13:53;;;;;;;11.30;6.20;;;4.10;1.00;;;;;;5023891;28;20204;-80
2021/12/21 09:16:18;;;;;;;7.27;5.77;;;5.20;1.00;;;;;;4938085;28;20220;-78
2021/12/21 09:18:44;;;;;;;10.40;5.77;;;5.40;1.00;;;;;;4928537;28;20319;-76
2021/12/21 09:22:24;;;;;;;11.10;6.13;;;5.60;1.00;;;;;;5149127;27;20345;-77
2021/12/21 09:24:50;;;;;;;8.23;6.23;;;6.20;1.00;;;;;;5119701;28;20188;-77
2021/12/21 09:27:16;;;;;;;8.17;6.00;;;5.40;1.00;;;;;;5121233;28;20290;-80
2021/12/21 09:29:42;;;;;;;8.60;6.00;;;5.30;1.00;;;;;;5102755;28;20549;-77
2021/12/21 09:32:12;;;;;;;9.20;5.83;;;5.40;1.00;;;;;;5054706;28;20214;-78
2021/12/21 09:34:41;;;;;;;8.90;5.90;;;5.80;1.00;;;;;;5010316;28;20268;-77
2021/12/21 09:37:14;;;;;;;9.17;5.93;;;6.70;1.00;;;;;;4963137;28;20213;-79
2021/12/21 09:39:40;;;;;;;12.73;6.00;;;6.80;1.00;;;;;;4978646;28;20210;-78
2021/12/21 09:42:06;;;;;;;10.43;5.83;;;6.90;1.00;;;;;;4934499;28;20280;-78
2021/12/21 09:44:32;;;;;;;8.20;5.70;;;7.30;1.00;;;;;;4861872;29;20201;-79
2021/12/21 09:48:23;;;;;;;9.67;5.40;;;7.70;1.00;;;;;;5068196;28;20560;-77
2021/12/21 09:50:49;;;;;;;9.33;5.57;;;7.80;1.00;;;;;;5068758;28;20174;-77
2021/12/21 09:53:15;;;;;;;8.27;5.77;;;7.40;1.00;;;;;;5068376;28;20178;-76
2021/12/21 09:55:41;;;;;;;9.27;6.13;;;7.40;1.00;;;;;;5068190;28;20556;-76
2021/12/21 09:58:06;;;;;;;11.73;6.50;;;6.20;1.00;;;;;;5068064;28;20197;-76
2021/12/21 10:00:34;;;;;;;9.63;7.20;;;6.80;1.00;;;;;;5068472;28;20178;-77
2021/12/21 10:03:05;;;;;;;10.47;6.97;;;6.80;1.00;;;;;;5068516;28;20181;-77
2021/12/21 10:05:37;;;;;;;10.00;7.40;;;6.90;1.00;;;;;;5060470;28;20563;-77
2021/12/21 10:08:11;;;;;;;11.57;7.30;;;7.60;1.00;;;;;;5063068;28;20321;-77
2021/12/21 10:10:40;;;;;;;10.30;6.83;;;7.30;1.00;;;;;;5068483;28;20198;-77
2021/12/21 10:13:11;;;;;;;12.23;7.23;;;6.40;1.00;;;;;;5068039;28;20206;-76
2021/12/21 10:15:40;;;;;;;10.23;7.27;;;4.40;1.00;;;;;;5041619;28;20202;-77
2021/12/21 10:18:06;;;;;;;8.37;6.87;;;3.30;18.50;;;;;;5067398;28;20254;-78
2021/12/21 10:20:31;;;;;;;12.50;6.80;;;3.90;99.90;;;;;;5068151;28;20183;-76
2021/12/21 10:22:57;;;;;;;10.77;7.13;;;3.60;55.90;;;;;;5067758;28;20186;-77
2021/12/21 10:25:25;;;;;;;10.07;6.93;;;3.60;99.90;;;;;;5068177;28;20182;-77
2021/12/21 10:27:51;;;;;;;8.80;7.00;;;4.20;99.90;;;;;;5067488;28;20263;-78
2021/12/21 10:30:16;;;;;;;11.30;6.77;;;4.00;99.90;;;;;;5068163;28;20182;-77
2021/12/21 10:32:51;;;;;;;10.60;7.27;;;3.70;79.30;;;;;;5060448;28;20261;-76
2021/12/21 10:35:17;;;;;;;12.00;7.70;;;3.30;99.90;;;;;;5062010;28;20182;-76
2021/12/21 10:37:43;;;;;;;13.60;7.90;;;2.60;1.00;;;;;;5067290;28;20205;-75
2021/12/21 10:40:26;;;;;;;10.07;6.93;;;2.90;1.00;;;;;;5067808;28;20197;-76
2021/12/21 10:42:56;;;;;;;13.77;7.70;;;3.30;1.00;;;;;;5067518;28;20174;-76
2021/12/21 10:45:29;;;;;;;11.23;6.83;;;3.10;1.00;;;;;;5053743;28;20263;-77
2021/12/21 10:47:55;;;;;;;11.40;7.17;;;3.20;1.00;;;;;;5053082;28;20431;-76
2021/12/21 10:50:22;;;;;;;10.67;6.23;;;3.50;1.00;;;;;;5067370;28;20263;-78
2021/12/21 10:52:54;;;;;;;10.23;6.57;;;3.20;99.90;;;;;;5066969;28;20171;-77
2021/12/21 10:55:39;;;;;;;11.30;6.40;;;3.70;1.00;;;;;;5067054;28;20190;-77
2021/12/21 10:58:15;;;;;;;9.80;5.83;;;4.00;99.90;;;;;;5062351;28;20195;-76
2021/12/21 11:00:47;;;;;;;9.87;5.03;;;3.40;99.90;;;;;;5053949;28;20213;-76
2021/12/21 11:03:17;;;;;;;7.83;5.80;;;3.20;99.90;;;;;;5053530;28;20175;-76
2021/12/21 11:05:44;;;;;;;10.37;5.63;;;2.80;1.00;;;;;;5053785;28;20260;-77
2021/12/21 11:08:14;;;;;;;9.50;5.37;;;3.10;1.00;;;;;;5053009;28;20299;-77
2021/12/21 11:10:44;;;;;;;8.07;4.93;;;3.40;1.00;;;;;;5053803;28;20183;-77
2021/12/21 11:13:11;;;;;;;8.77;5.10;;;3.40;99.90;;;;;;5053261;28;20179;-77
2021/12/21 11:15:38;;;;;;;10.73;5.67;;;3.30;99.90;;;;;;5047115;28;20268;-78
2021/12/21 11:18:07;;;;;;;7.03;4.63;;;3.60;99.90;;;;;;5034088;28;20196;-77
2021/12/21 11:20:35;;;;;;;8.63;4.80;;;4.00;99.90;;;;;;5039889;28;20175;-78
2021/12/21 11:23:01;;;;;;;8.80;5.60;;;6.40;1.00;;;;;;5053661;28;20175;-77
2021/12/21 11:25:27;;;;;;;9.70;5.33;;;7.40;1.00;;;;;;5052861;28;20186;-77
2021/12/21 11:27:53;;;;;;;7.27;4.63;;;8.30;1.00;;;;;;5052684;28;20218;-77
2021/12/21 11:30:21;;;;;;;8.30;4.63;;;8.60;1.00;;;;;;5051887;28;20183;-76
2021/12/21 11:32:49;;;;;;;7.00;4.43;;;7.70;1.00;;;;;;5041280;28;20210;-78
2021/12/21 11:37:54;;;;;;;6.50;4.43;;;6.20;1.00;;;;;;5039918;28;20198;-78
2021/12/21 11:40:26;;;;;;;8.43;5.27;;;6.60;1.00;;;;;;5053231;28;20187;-76
2021/12/21 11:42:51;;;;;;;7.87;4.33;;;6.70;1.00;;;;;;5053436;28;20190;-78
2021/12/21 11:45:41;;;;;;;7.70;4.50;;;5.90;1.00;;;;;;5054174;28;20246;-77
2021/12/21 11:48:09;;;;;;;6.80;4.63;;;5.70;1.00;;;;;;5053857;28;20219;-76
2021/12/21 11:50:36;;;;;;;9.20;4.80;;;5.30;1.00;;;;;;5039932;28;20214;-76
2021/12/21 11:53:14;;;;;;;9.97;4.20;;;4.70;1.00;;;;;;5053193;28;20175;-79
2021/12/21 11:55:42;;;;;;;6.03;3.80;;;4.40;1.00;;;;;;5053475;28;20182;-76
2021/12/21 11:58:16;;;;;;;7.63;4.03;;;5.50;1.00;;;;;;5052158;28;20191;-76
2021/12/21 12:00:47;;;;;;;9.10;4.17;;;4.50;1.00;;;;;;5053006;28;20206;-76
2021/12/21 12:03:18;;;;;;;6.13;4.23;;;4.20;1.00;;;;;;5052791;28;20218;-76
2021/12/21 12:06:12;;;;;;;6.90;3.93;;;4.90;1.00;;;;;;5052715;28;20179;-77
2021/12/21 12:08:52;;;;;;;7.20;3.93;;;5.00;1.00;;;;;;5051984;28;20207;-78
2021/12/21 12:11:35;;;;;;;4.87;3.30;;;5.20;1.00;;;;;;5051182;28;20225;-78
2021/12/21 12:14:10;;;;;;;6.30;3.70;;;5.10;1.00;;;;;;5027834;28;20558;-76
2021/12/21 12:16:51;;;;;;;5.80;3.60;;;4.20;1.00;;;;;;5036892;28;20229;-80
2021/12/21 12:19:20;;;;;;;5.73;3.87;;;3.60;1.00;;;;;;5052215;28;20228;-77
2021/12/21 12:21:59;;;;;;;8.10;3.97;;;3.80;1.00;;;;;;5052775;28;20178;-77
2021/12/21 12:24:32;;;;;;;5.40;3.50;;;4.60;1.00;;;;;;5052858;28;20179;-81
2021/12/21 12:27:10;;;;;;;6.33;3.77;;;4.50;1.00;;;;;;5026988;28;20199;-77
2021/12/21 12:30:12;;;;;;;4.80;3.17;;;5.30;1.00;;;;;;5032955;28;20579;-77
2021/12/21 12:32:59;;;;;;;5.77;3.10;;;5.50;1.00;;;;;;5031754;28;20206;-77
2021/12/21 12:35:28;;;;;;;5.13;3.33;;;7.30;1.00;;;;;;5020212;28;20605;-76
2021/12/21 12:38:01;;;;;;;4.80;3.20;;;8.00;1.00;;;;;;5012131;28;20720;-77
2021/12/21 12:40:34;;;;;;;5.67;3.23;;;7.40;1.00;;;;;;5012722;28;20187;-77
2021/12/21 12:43:20;;;;;;;5.17;3.20;;;7.10;1.00;;;;;;5020565;28;20703;-77
2021/12/21 12:45:54;;;;;;;3.60;3.20;;;7.60;1.00;;;;;;5021220;28;20180;-78
2021/12/21 12:48:39;;;;;;;4.57;3.37;;;8.70;1.00;;;;;;5020630;28;20639;-76
2021/12/21 12:51:07;;;;;;;7.53;3.60;;;8.70;1.00;;;;;;5022976;28;20183;-78
2021/12/21 12:53:39;;;;;;;5.23;2.90;;;9.60;1.00;;;;;;5014917;28;20207;-77
2021/12/21 12:56:07;;;;;;;3.53;2.83;;;8.90;1.00;;;;;;5012342;28;20173;-76
2021/12/21 12:58:35;;;;;;;5.57;3.30;;;7.60;1.00;;;;;;5011594;28;20234;-76
2021/12/21 13:01:05;;;;;;;4.90;3.20;;;8.30;1.00;;;;;;5012285;28;20176;-78
2021/12/21 13:03:35;;;;;;;4.60;3.17;;;8.40;1.00;;;;;;5011130;28;20262;-77
2021/12/21 13:06:08;;;;;;;6.00;3.13;;;7.30;1.00;;;;;;5012457;28;20176;-77
2021/12/21 13:08:33;;;;;;;6.43;3.17;;;6.80;1.00;;;;;;5011963;28;20200;-77
2021/12/21 13:11:00;;;;;;;4.70;2.90;;;6.60;1.00;;;;;;5012435;28;20744;-78
2021/12/21 13:13:43;;;;;;;4.90;3.00;;;6.60;1.00;;;;;;5012283;28;20246;-77
2021/12/21 13:16:14;;;;;;;5.53;3.20;;;6.20;1.00;;;;;;5012364;28;20204;-81
2021/12/21 13:18:54;;;;;;;5.60;3.10;;;5.50;1.00;;;;;;5011858;28;20284;-77
2021/12/21 13:21:29;;;;;;;7.20;4.07;;;5.90;1.00;;;;;;5011835;28;20168;-76
2021/12/21 13:24:11;;;;;;;8.53;4.47;;;6.90;1.00;;;;;;5011998;28;20180;-77
2021/12/21 13:26:45;;;;;;;8.23;5.27;;;7.70;1.00;;;;;;5011952;28;20194;-76
2021/12/21 13:29:14;;;;;;;9.67;4.90;;;7.70;1.00;;;;;;5011500;28;20196;-77
2021/12/21 13:31:40;;;;;;;7.30;4.80;;;8.40;1.00;;;;;;5012012;28;20180;-76
2021/12/21 13:34:06;;;;;;;7.37;5.00;;;8.60;1.00;;;;;;5012034;28;20268;-77
2021/12/21 13:36:38;;;;;;;11.73;4.93;;;10.00;1.00;;;;;;5012260;28;20216;-78
2021/12/21 13:39:20;;;;;;;9.33;5.03;;;10.70;1.00;;;;;;5011220;28;20562;-78
2021/12/21 13:41:51;;;;;;;7.87;5.03;;;11.20;1.00;;;;;;5011820;28;20222;-77
2021/12/21 13:44:31;;;;;;;7.67;4.30;;;11.40;1.00;;;;;;5011594;28;20180;-78
2021/12/21 13:47:18;;;;;;;9.70;5.10;;;10.40;1.00;;;;;;5011080;28;20188;-78
2021/12/21 13:50:06;;;;;;;7.87;4.23;;;10.60;1.00;;;;;;5011284;28;20181;-79
2021/12/21 13:52:41;;;;;;;8.50;4.43;;;10.90;1.00;;;;;;5021124;28;20259;-77
2021/12/21 13:55:32;;;;;;;6.73;3.83;;;10.90;1.00;;;;;;5030929;28;20262;-78
2021/12/21 13:58:02;;;;;;;6.73;4.13;;;10.70;1.00;;;;;;5030577;28;20211;-76
2021/12/21 14:00:29;;;;;;;7.17;4.30;;;10.40;1.00;;;;;;5031486;28;20175;-76
2021/12/21 14:03:14;;;;;;;8.37;4.60;;;9.70;1.00;;;;;;5031278;28;20191;-77
2021/12/21 14:05:43;;;;;;;4.97;4.10;;;9.40;1.00;;;;;;5031632;28;20663;-77
2021/12/21 14:08:10;;;;;;;8.10;4.30;;;10.00;1.00;;;;;;5030983;28;20669;-77
2021/12/21 14:10:41;;;;;;;5.77;3.77;;;9.60;1.00;;;;;;5031492;28;20175;-80
2021/12/21 14:13:07;;;;;;;6.70;3.67;;;9.50;1.00;;;;;;5031257;28;20172;-76
2021/12/21 14:15:35;;;;;;;6.10;3.97;;;9.10;1.00;;;;;;5031361;28;20180;-77